South Arkansas Regional At Goodwin Field El Dorado US
ICAO: KELD
IATA: ELD
Category: Medium
Scheduled Services: Yes

Elevation: 277 ft
TransAlt. 18000 ft.

Airport Communications:
FORT WORTH CNTR:126.32
ASOS:118.325
JONESBORO RDO:122.65
CTAF/UNICOM:123

KELD Zoom In..

If Map Doesn't Load, Click Here

Runways:

(A) RW 04 length 6601 ft width 150 ft
---- / hdg 43

(B) RW 13 length 5100 ft width 100 ft
---- / hdg 133

(C) RW 17 length 3733 ft width 75 ft
---- / hdg 178

(D) RW 22 length 6601 ft width 150 ft
ILS 111.10 / hdg 223

(E) RW 31 length 5100 ft width 100 ft
---- / hdg 313

(F) RW 35 length 3733 ft width 75 ft
---- / hdg 358

Location; KELD
Day. 21 / Time. 15.53 Zulu
* Altimeter: 30.05
* Temperature: 31° c. 87.8°f.
* Wind from: 160° Speed 06 kn.
Dewpoint: 24° c.
Visibility: 10 Statute Miles.
Clouds: Few 2700 ft.
Clouds: Few 3400 ft.
Clouds: Scattered 4500 ft.

KELD 211553Z AUTO 16006KT 10SM FEW027 FEW034 SCT045 31/24 A3005 RMK AO2 SLP173 T03110239


Wind From 160°
Speed 06 kn.

 
 
jpsmedia.com for Web Design worldairports.se 2018   terms of use